Time;durP1;ratioP1;P1;durP2;ratioP2;P2;SDS_P1;SDS_P2;PMS_P1;PMS_P2;Temp;Humidity;BMP_temperature;BMP_pressure;BME280_temperature;BME280_humidity;BME280_pressure;Samples;Min_cycle;Max_cycle;Signal;HPM_P1;HPM_P2
2024/01/20 00:02:13;;;;;;;17.15;9.95;;;;;;;-142.57;100.00;55810.13;5031160;28;20049;-79
2024/01/20 00:04:39;;;;;;;16.65;10.07;;;;;;;-142.57;100.00;55775.78;5030820;28;20085;-80
2024/01/20 00:07:05;;;;;;;20.30;9.38;;;;;;;-142.57;100.00;55749.53;5025564;28;20029;-81
2024/01/20 00:09:31;;;;;;;21.42;9.05;;;;;;;-142.57;100.00;55741.44;5029124;28;20056;-78
2024/01/20 00:11:56;;;;;;;15.43;8.98;;;;;;;-142.57;100.00;55777.81;5029931;28;20029;-82
2024/01/20 00:14:22;;;;;;;19.73;9.77;;;;;;;-142.57;100.00;55763.66;5029736;28;20371;-81
2024/01/20 00:16:47;;;;;;;16.45;8.90;;;;;;;-142.57;100.00;55713.16;5027714;28;20054;-80
2024/01/20 00:19:13;;;;;;;17.20;8.18;;;;;;;-142.57;100.00;55721.22;5030613;28;20045;-80
2024/01/20 00:21:39;;;;;;;16.20;7.15;;;;;;;-142.57;100.00;55725.28;5028660;28;20122;-78
2024/01/20 00:24:05;;;;;;;13.05;7.88;;;;;;;-142.57;100.00;55717.19;5022428;28;20034;-79
2024/01/20 00:26:35;;;;;;;13.35;7.85;;;;;;;-142.57;100.00;55735.38;5020257;28;20052;-82
2024/01/20 00:29:00;;;;;;;15.75;7.75;;;;;;;-142.57;100.00;55699.00;5031442;28;20066;-79
2024/01/20 00:31:26;;;;;;;16.23;7.95;;;;;;;-142.57;100.00;55717.19;5035971;28;20042;-81
2024/01/20 00:33:51;;;;;;;13.80;6.15;;;;;;;-142.57;100.00;55715.16;5021507;28;20145;-83
2024/01/20 00:36:17;;;;;;;16.52;6.35;;;;;;;-142.57;100.00;55684.88;5014865;28;20037;-80
2024/01/20 00:38:42;;;;;;;12.90;6.15;;;;;;;-142.57;100.00;55694.97;5014540;28;20038;-81
2024/01/20 00:41:10;;;;;;;9.93;5.70;;;;;;;-142.57;100.00;55692.94;5015031;28;20482;-78
2024/01/20 00:43:36;;;;;;;14.43;6.25;;;;;;;-142.57;100.00;55684.88;5014295;28;20042;-81
2024/01/20 00:46:01;;;;;;;11.50;5.85;;;;;;;-142.57;100.00;55668.69;5015632;28;20037;-81
2024/01/20 00:48:27;;;;;;;14.38;6.38;;;;;;;-142.57;100.00;55680.81;5013562;28;20038;-80
2024/01/20 00:50:52;;;;;;;14.82;6.18;;;;;;;-142.57;100.00;55672.75;5014550;28;20042;-80
2024/01/20 00:53:18;;;;;;;14.52;6.85;;;;;;;-142.57;100.00;55690.94;5014779;28;20483;-82
2024/01/20 00:55:43;;;;;;;10.32;6.10;;;;;;;-142.57;100.00;55688.91;5013038;28;20091;-80
2024/01/20 00:58:09;;;;;;;13.77;6.68;;;;;;;-142.57;100.00;55684.88;5014522;28;20030;-80
2024/01/20 01:00:35;;;;;;;15.35;7.40;;;;;;;-142.57;100.00;55686.88;5014271;28;20048;-83
2024/01/20 01:03:00;;;;;;;10.25;5.78;;;;;;;-142.57;100.00;55668.69;5014171;28;20042;-83
2024/01/20 01:05:26;;;;;;;12.13;6.38;;;;;;;-142.57;100.00;55678.81;5014403;28;20064;-82
2024/01/20 01:07:51;;;;;;;11.77;6.20;;;;;;;-142.57;100.00;55690.94;5013216;28;20057;-81
2024/01/20 01:10:17;;;;;;;12.75;6.45;;;;;;;-142.57;100.00;55697.00;5016288;28;20048;-79
2024/01/20 01:12:43;;;;;;;14.57;7.60;;;;;;;-142.57;100.00;55656.56;5018490;28;20502;-79
2024/01/20 01:15:08;;;;;;;14.52;7.07;;;;;;;-142.57;100.00;55642.44;5026727;28;20036;-82
2024/01/20 01:17:34;;;;;;;14.93;7.57;;;;;;;-142.57;100.00;55662.63;5026240;28;20037;-83
2024/01/20 01:20:00;;;;;;;20.35;8.15;;;;;;;-142.57;100.00;55672.75;5021813;28;20144;-79
2024/01/20 01:22:25;;;;;;;17.23;8.55;;;;;;;-142.57;100.00;55713.16;5016779;28;20026;-79
2024/01/20 01:24:51;;;;;;;16.77;8.05;;;;;;;-142.57;100.00;55690.94;5015394;28;20069;-81
2024/01/20 01:27:16;;;;;;;16.20;7.65;;;;;;;-142.57;100.00;55707.09;5015422;28;20033;-82
2024/01/20 01:29:42;;;;;;;13.38;7.63;;;;;;;-142.57;100.00;55697.00;5014110;28;20120;-81
2024/01/20 01:32:07;;;;;;;15.57;7.32;;;;;;;-142.57;100.00;55668.69;5014820;28;20073;-79
2024/01/20 01:34:33;;;;;;;14.38;7.50;;;;;;;-142.57;100.00;55684.88;5014526;28;20026;-79
2024/01/20 01:36:58;;;;;;;15.98;8.02;;;;;;;-142.57;100.00;55632.34;5014099;28;20041;-79
2024/01/20 01:39:25;;;;;;;19.15;8.38;;;;;;;-142.57;100.00;55595.97;5017225;28;20533;-79
2024/01/20 01:41:50;;;;;;;14.13;7.82;;;;;;;-142.57;100.00;55626.28;5017953;28;20069;-80
2024/01/20 01:44:16;;;;;;;15.05;7.88;;;;;;;-142.57;100.00;55636.38;5018450;28;20041;-78
2024/01/20 01:46:42;;;;;;;15.23;8.23;;;;;;;-142.57;100.00;55581.81;5017987;28;20068;-82
2024/01/20 01:49:07;;;;;;;17.08;8.35;;;;;;;-142.57;100.00;55593.94;5019573;28;20068;-83
2024/01/20 01:51:33;;;;;;;14.18;8.20;;;;;;;-142.57;100.00;55543.44;5025359;28;20091;-79
2024/01/20 01:54:01;;;;;;;16.45;8.82;;;;;;;-142.57;100.00;55563.63;5028309;28;20048;-83
2024/01/20 01:56:29;;;;;;;16.73;9.48;;;;;;;-142.57;100.00;55563.63;5028290;28;20164;-82
2024/01/20 01:58:56;;;;;;;15.68;8.38;;;;;;;-142.57;100.00;55604.03;5023205;28;20507;-84
2024/01/20 02:01:21;;;;;;;15.05;8.52;;;;;;;-142.57;100.00;55595.97;5026299;28;20057;-84
2024/01/20 02:03:47;;;;;;;16.10;8.27;;;;;;;-142.57;100.00;55569.69;5025638;28;20384;-80
2024/01/20 02:06:17;;;;;;;16.98;8.70;;;;;;;-142.57;100.00;55551.50;5029267;28;20038;-81
2024/01/20 02:08:42;;;;;;;14.38;8.25;;;;;;;-142.57;100.00;55561.63;5024481;28;20034;-85
2024/01/20 02:11:09;;;;;;;15.15;8.27;;;;;;;-142.57;100.00;55591.91;5016619;28;20063;-82
2024/01/20 02:13:34;;;;;;;14.52;8.18;;;;;;;-142.57;100.00;55563.63;5017324;28;20137;-82
2024/01/20 02:16:01;;;;;;;15.95;8.32;;;;;;;-142.57;100.00;55577.78;5016849;28;20036;-82
2024/01/20 02:18:27;;;;;;;21.02;10.57;;;;;;;-142.57;100.00;55575.75;5016772;28;20041;-82
2024/01/20 02:20:53;;;;;;;17.98;8.98;;;;;;;-142.57;100.00;55527.28;5017073;28;20052;-81
2024/01/20 02:23:19;;;;;;;21.50;9.32;;;;;;;-142.57;100.00;55547.47;5016841;28;20033;-82
2024/01/20 02:25:46;;;;;;;16.73;9.25;;;;;;;-142.57;100.00;55507.06;5016791;28;20076;-83
2024/01/20 02:28:11;;;;;;;19.17;9.85;;;;;;;-142.57;100.00;55505.03;5016658;28;20038;-84
2024/01/20 02:30:37;;;;;;;19.98;9.77;;;;;;;-142.57;100.00;55527.28;5016400;28;20042;-81
2024/01/20 02:33:03;;;;;;;21.05;10.32;;;;;;;-142.57;100.00;55531.31;5016252;28;20096;-83
2024/01/20 02:35:29;;;;;;;24.05;10.30;;;;;;;-142.57;100.00;55543.44;5016324;28;20038;-80
2024/01/20 02:37:55;;;;;;;19.83;10.05;;;;;;;-142.57;100.00;55563.63;5016397;28;20084;-82
2024/01/20 02:40:21;;;;;;;22.02;10.02;;;;;;;-142.57;100.00;55519.19;5016592;28;20121;-84
2024/01/20 02:42:47;;;;;;;22.73;10.43;;;;;;;-142.57;100.00;55517.16;5020867;28;20029;-79
2024/01/20 02:45:31;;;;;;;15.27;9.63;;;;;;;-142.57;100.00;55488.88;5027050;28;20033;-79
2024/01/20 02:47:57;;;;;;;16.50;9.45;;;;;;;-142.57;100.00;55511.09;5040002;28;20153;-80
2024/01/20 02:50:23;;;;;;;21.10;9.77;;;;;;;-142.57;100.00;55490.91;5028379;28;20157;-83
2024/01/20 02:52:49;;;;;;;15.52;9.77;;;;;;;-142.57;100.00;55486.84;5016031;28;20037;-82
2024/01/20 02:55:15;;;;;;;17.02;9.57;;;;;;;-142.57;100.00;55513.13;5014636;28;20045;-80
2024/01/20 02:57:40;;;;;;;16.70;8.85;;;;;;;-142.57;100.00;55468.69;5016358;28;20029;-81
2024/01/20 03:00:07;;;;;;;17.23;9.13;;;;;;;-142.57;100.00;55511.09;5015608;28;20048;-83
2024/01/20 03:02:33;;;;;;;18.05;9.85;;;;;;;-142.57;100.00;55523.22;5015859;28;20053;-84
2024/01/20 03:05:00;;;;;;;13.88;8.25;;;;;;;-142.57;100.00;55531.31;5015724;28;20495;-82
2024/01/20 03:07:26;;;;;;;17.95;9.95;;;;;;;-142.57;100.00;55474.72;5015420;28;20048;-79
2024/01/20 03:09:52;;;;;;;17.30;9.18;;;;;;;-142.57;100.00;55450.50;5021340;28;20085;-79
2024/01/20 03:12:17;;;;;;;18.48;9.77;;;;;;;-142.57;100.00;55458.56;5019506;28;20089;-81
2024/01/20 03:14:43;;;;;;;16.90;8.68;;;;;;;-142.57;100.00;55442.41;5018793;28;20432;-82
2024/01/20 03:17:09;;;;;;;17.92;9.43;;;;;;;-142.57;100.00;55430.28;5018928;28;20038;-81
2024/01/20 03:19:34;;;;;;;23.67;9.57;;;;;;;-142.57;100.00;55428.25;5027549;28;20030;-81
2024/01/20 03:22:00;;;;;;;15.93;9.23;;;;;;;-142.57;100.00;55470.69;5027237;28;20034;-82
2024/01/20 03:24:25;;;;;;;16.65;9.98;;;;;;;-142.57;100.00;55466.66;5022198;28;20501;-80
2024/01/20 03:26:54;;;;;;;17.50;9.50;;;;;;;-142.57;100.00;55458.56;5025361;28;20458;-82
2024/01/20 03:29:20;;;;;;;17.80;9.88;;;;;;;-142.57;100.00;55412.09;5026095;28;20380;-82
2024/01/20 03:31:46;;;;;;;14.20;8.90;;;;;;;-142.57;100.00;55468.69;5016969;28;20053;-82
2024/01/20 03:34:11;;;;;;;18.02;9.63;;;;;;;-142.57;100.00;55462.63;5025408;28;20510;-82
2024/01/20 03:36:37;;;;;;;17.55;9.10;;;;;;;-142.57;100.00;55446.44;5019798;28;20067;-81
2024/01/20 03:39:03;;;;;;;16.80;9.25;;;;;;;-142.57;100.00;55450.50;5019457;28;20026;-82
2024/01/20 03:41:29;;;;;;;17.48;9.48;;;;;;;-142.57;100.00;55452.50;5023536;28;20045;-78
2024/01/20 03:43:55;;;;;;;15.48;8.80;;;;;;;-142.57;100.00;55498.97;5021486;28;20041;-82
2024/01/20 03:46:23;;;;;;;16.23;8.65;;;;;;;-142.57;100.00;55498.97;5019741;28;20093;-82
2024/01/20 03:48:49;;;;;;;13.43;8.40;;;;;;;-142.57;100.00;55492.91;5022315;28;20441;-79
2024/01/20 03:51:14;;;;;;;13.77;8.30;;;;;;;-142.57;100.00;55462.63;5027855;28;20030;-78
2024/01/20 03:53:40;;;;;;;19.05;8.65;;;;;;;-142.57;100.00;55503.03;5023589;28;20411;-79
2024/01/20 03:56:06;;;;;;;16.75;9.30;;;;;;;-142.57;100.00;55480.78;5017958;28;20022;-81
2024/01/20 03:58:32;;;;;;;15.02;9.23;;;;;;;-142.57;100.00;55482.81;5023604;28;20025;-82
2024/01/20 04:00:57;;;;;;;18.95;9.38;;;;;;;-142.57;100.00;55462.63;5020268;28;20038;-83
2024/01/20 04:03:22;;;;;;;16.48;9.73;;;;;;;-142.57;100.00;55478.78;5027135;28;20025;-82
2024/01/20 04:05:49;;;;;;;17.08;9.85;;;;;;;-142.57;100.00;55488.88;5015239;28;20069;-80
2024/01/20 04:08:14;;;;;;;16.00;9.43;;;;;;;-142.57;100.00;55505.03;5022737;28;20058;-81
2024/01/20 04:10:40;;;;;;;14.57;8.75;;;;;;;-142.57;100.00;55482.81;5019128;28;20049;-85
2024/01/20 04:13:06;;;;;;;14.10;8.68;;;;;;;-142.57;100.00;55464.63;5028526;28;20041;-82
2024/01/20 04:15:31;;;;;;;15.60;9.27;;;;;;;-142.57;100.00;55482.81;5023559;28;20034;-80
2024/01/20 04:17:57;;;;;;;16.85;9.30;;;;;;;-142.57;100.00;55462.63;5033233;28;20130;-82
2024/01/20 04:20:22;;;;;;;15.63;9.30;;;;;;;-142.57;100.00;55418.16;5025475;28;20034;-82
2024/01/20 04:22:48;;;;;;;15.65;9.65;;;;;;;-142.57;100.00;55438.38;5026184;28;20086;-81
2024/01/20 04:25:13;;;;;;;18.00;10.70;;;;;;;-142.57;100.00;55470.69;5028420;28;20415;-81
2024/01/20 04:27:40;;;;;;;16.75;10.05;;;;;;;-142.57;100.00;55472.72;5023324;28;20036;-80
2024/01/20 04:30:10;;;;;;;16.63;10.02;;;;;;;-142.57;100.00;55468.69;5019050;28;20057;-80
2024/01/20 04:32:36;;;;;;;16.90;9.95;;;;;;;-142.57;100.00;55486.84;5023825;28;20040;-80
2024/01/20 04:35:03;;;;;;;17.42;9.77;;;;;;;-142.57;100.00;55498.97;5022479;28;20118;-83
2024/01/20 04:37:28;;;;;;;18.95;10.82;;;;;;;-142.57;100.00;55517.16;5031878;28;20471;-81
2024/01/20 04:39:56;;;;;;;14.77;9.40;;;;;;;-142.57;100.00;55494.94;5025054;28;20041;-83
2024/01/20 04:42:22;;;;;;;17.38;9.88;;;;;;;-142.57;100.00;55454.53;5015848;28;20037;-81
2024/01/20 04:44:47;;;;;;;21.58;10.32;;;;;;;-142.57;100.00;55478.78;5016820;28;20026;-82
2024/01/20 04:47:12;;;;;;;19.10;10.60;;;;;;;-142.57;100.00;55436.34;5023132;28;20037;-83
2024/01/20 04:49:38;;;;;;;21.17;10.90;;;;;;;-142.57;100.00;55426.25;5017135;28;20053;-79
2024/01/20 04:52:07;;;;;;;19.45;10.10;;;;;;;-142.57;100.00;55434.31;5032399;28;20056;-83
2024/01/20 04:54:32;;;;;;;21.40;10.63;;;;;;;-142.57;100.00;55422.22;5020272;28;20049;-81
2024/01/20 04:56:58;;;;;;;21.10;11.02;;;;;;;-142.57;100.00;55414.13;5015577;28;20098;-84
2024/01/20 04:59:24;;;;;;;19.77;10.88;;;;;;;-142.57;100.00;55426.25;5024375;28;20383;-83
2024/01/20 05:01:50;;;;;;;18.88;10.13;;;;;;;-142.57;100.00;55420.19;5015328;28;20038;-83
2024/01/20 05:04:16;;;;;;;17.40;10.20;;;;;;;-142.57;100.00;55414.13;5016086;28;20034;-84
2024/01/20 05:10:29;;;;;;;20.38;10.45;;;;;;;-142.57;100.00;55393.91;5033814;28;20089;-79
2024/01/20 05:12:54;;;;;;;21.63;11.90;;;;;;;-142.57;100.00;55373.72;5036526;28;20017;-78
2024/01/20 05:15:20;;;;;;;19.10;10.63;;;;;;;-142.57;100.00;55408.06;5024327;28;20478;-82
2024/01/20 05:17:46;;;;;;;18.10;10.65;;;;;;;-142.57;100.00;55397.97;5014724;28;20034;-85
2024/01/20 05:20:15;;;;;;;20.45;10.93;;;;;;;-142.57;100.00;55448.47;5014283;28;20433;-81
2024/01/20 05:22:40;;;;;;;21.15;10.88;;;;;;;-142.57;100.00;55438.38;5013607;28;20037;-85
2024/01/20 05:25:06;;;;;;;19.88;11.48;;;;;;;-142.57;100.00;55420.19;5013925;28;20030;-83
2024/01/20 05:27:31;;;;;;;20.30;10.98;;;;;;;-142.57;100.00;55399.97;5013307;28;20030;-80
2024/01/20 05:29:57;;;;;;;20.63;11.60;;;;;;;-142.57;100.00;55418.16;5012282;28;20128;-84
2024/01/20 05:32:23;;;;;;;20.70;10.77;;;;;;;-142.57;100.00;55436.34;5044332;28;20029;-81
2024/01/20 05:34:48;;;;;;;20.33;11.70;;;;;;;-142.57;100.00;55385.84;5053103;28;20033;-83
2024/01/20 05:37:14;;;;;;;19.50;11.48;;;;;;;-142.57;100.00;55383.81;5053178;28;20132;-84
2024/01/20 05:39:40;;;;;;;19.70;10.77;;;;;;;-142.57;100.00;55345.44;5056851;28;20044;-78
2024/01/20 05:42:05;;;;;;;20.73;11.90;;;;;;;-142.57;100.00;55383.81;5053530;28;20036;-78
2024/01/20 05:44:31;;;;;;;21.88;11.82;;;;;;;-142.57;100.00;55373.72;5053512;28;20099;-80
2024/01/20 05:46:56;;;;;;;19.45;11.95;;;;;;;-142.57;100.00;55395.94;5053469;28;20394;-81
2024/01/20 05:49:22;;;;;;;23.55;13.30;;;;;;;-142.57;100.00;55377.75;5047043;28;20033;-83
2024/01/20 05:51:47;;;;;;;21.95;13.38;;;;;;;-142.57;100.00;55383.81;5033299;28;20037;-83
2024/01/20 05:54:13;;;;;;;21.80;11.68;;;;;;;-142.57;100.00;55381.81;5033064;28;20475;-80
2024/01/20 05:56:38;;;;;;;24.85;12.23;;;;;;;-142.57;100.00;55399.97;5034559;28;20064;-78
2024/01/20 05:59:04;;;;;;;20.45;11.82;;;;;;;-142.57;100.00;55377.75;5036312;28;20037;-81
2024/01/20 06:01:30;;;;;;;20.55;11.13;;;;;;;-142.57;100.00;55397.97;5027485;28;20022;-77
2024/01/20 06:03:55;;;;;;;22.58;12.25;;;;;;;-142.57;100.00;55369.69;5017423;28;20026;-81
2024/01/20 06:06:21;;;;;;;19.45;11.30;;;;;;;-142.57;100.00;55381.81;5022777;28;20030;-80
2024/01/20 06:08:46;;;;;;;19.83;11.38;;;;;;;-142.57;100.00;55408.06;5019369;28;20045;-77
2024/01/20 06:11:15;;;;;;;20.15;10.73;;;;;;;-142.57;100.00;55404.03;5023699;28;20046;-82
2024/01/20 06:13:41;;;;;;;20.80;11.27;;;;;;;-142.57;100.00;55381.81;5016783;28;20125;-84
2024/01/20 06:16:06;;;;;;;21.70;12.27;;;;;;;-142.57;100.00;55355.53;5015825;28;20122;-81
2024/01/20 06:18:33;;;;;;;22.63;12.10;;;;;;;-142.57;100.00;55402.00;5022243;28;20033;-82
2024/01/20 06:20:59;;;;;;;20.27;12.15;;;;;;;-142.57;100.00;55349.47;5023007;28;20147;-81
2024/01/20 06:23:26;;;;;;;17.63;11.07;;;;;;;-142.57;100.00;55321.19;5014014;28;20057;-82
2024/01/20 06:25:51;;;;;;;24.77;13.07;;;;;;;-142.57;100.00;55341.38;5024267;28;20033;-84
2024/01/20 06:28:17;;;;;;;26.30;13.10;;;;;;;-142.57;100.00;55345.44;5027838;28;20029;-80
2024/01/20 06:30:46;;;;;;;23.10;12.75;;;;;;;-142.57;100.00;55341.38;5025845;28;20038;-81
2024/01/20 06:33:12;;;;;;;24.88;12.85;;;;;;;-142.57;100.00;55345.44;5019528;28;20053;-84
2024/01/20 06:35:38;;;;;;;25.15;12.82;;;;;;;-142.57;100.00;55349.47;5022601;28;20029;-82
2024/01/20 06:38:04;;;;;;;22.48;13.45;;;;;;;-142.57;100.00;55333.31;5025245;28;20101;-79
2024/01/20 06:40:29;;;;;;;22.88;12.70;;;;;;;-142.57;100.00;55385.84;5021718;28;20030;-83
2024/01/20 06:42:55;;;;;;;22.45;12.70;;;;;;;-142.57;100.00;55385.84;5024192;28;20034;-84
2024/01/20 06:45:23;;;;;;;25.35;12.27;;;;;;;-142.57;100.00;55345.44;5033593;28;20057;-81
2024/01/20 06:47:49;;;;;;;22.55;12.23;;;;;;;-142.57;100.00;55373.72;5034609;28;20025;-79
2024/01/20 06:50:15;;;;;;;26.02;14.65;;;;;;;-142.57;100.00;55305.03;5019153;28;20469;-82
2024/01/20 06:52:41;;;;;;;25.23;13.82;;;;;;;-142.57;100.00;55339.38;5018366;28;20105;-79
2024/01/20 06:55:09;;;;;;;23.85;13.50;;;;;;;-142.57;100.00;55349.47;5020837;28;20124;-79
2024/01/20 06:57:37;;;;;;;24.27;13.27;;;;;;;-142.57;100.00;55385.84;5018398;28;20193;-82
2024/01/20 07:00:03;;;;;;;23.70;13.05;;;;;;;-142.57;100.00;55426.25;5025114;28;20077;-83
2024/01/20 07:02:30;;;;;;;23.50;13.07;;;;;;;-142.57;100.00;55424.22;5016325;28;20116;-81
2024/01/20 07:04:55;;;;;;;22.40;13.48;;;;;;;-142.57;100.00;55462.63;5015975;28;20076;-82
2024/01/20 07:07:21;;;;;;;23.90;13.02;;;;;;;-142.57;100.00;55527.28;5016107;28;20037;-82
2024/01/20 07:09:47;;;;;;;21.75;11.70;;;;;;;-142.57;100.00;55456.56;5015360;28;20133;-82
2024/01/20 07:12:12;;;;;;;21.23;10.63;;;;;;;-142.57;100.00;55478.78;5016426;28;20046;-81
2024/01/20 07:14:38;;;;;;;17.25;9.95;;;;;;;-142.57;100.00;55559.59;5017575;28;20129;-89
2024/01/20 07:17:05;;;;;;;22.77;10.45;;;;;;;-142.57;100.00;55612.13;5016502;28;20041;-82
2024/01/20 07:19:30;;;;;;;16.90;9.43;;;;;;;-142.57;100.00;55662.63;5017310;28;20088;-80
2024/01/20 07:21:56;;;;;;;1310.07;140.27;;;;;;;-142.57;100.00;55656.56;5019283;28;20072;-80
2024/01/20 07:24:21;;;;;;;313.70;31.58;;;;;;;-142.57;100.00;55753.56;5027266;28;20052;-82
2024/01/20 07:26:47;;;;;;;111.45;16.90;;;;;;;-142.57;100.00;55899.03;5056772;28;20037;-81
2024/01/20 07:29:12;;;;;;;108.50;15.88;;;;;;;-142.57;100.00;55890.97;5057013;28;20092;-80
2024/01/20 07:31:38;;;;;;;70.97;13.23;;;;;;;-142.57;100.00;56012.19;5058208;28;20029;-83
2024/01/20 07:34:03;;;;;;;91.35;13.63;;;;;;;-142.57;100.00;56076.88;5056245;28;20123;-86
2024/01/20 07:36:29;;;;;;;51.45;12.13;;;;;;;-142.57;100.00;55983.91;5055562;28;20120;-80
2024/01/20 07:38:54;;;;;;;68.32;12.45;;;;;;;-142.57;100.00;56202.16;5056854;28;20044;-85
2024/01/20 07:41:20;;;;;;;50.13;11.07;;;;;;;-142.57;100.00;56280.97;5054213;28;20041;-84
2024/01/20 07:43:45;;;;;;;30.38;10.10;;;;;;;-142.57;100.00;56266.81;5054605;28;20048;-82
2024/01/20 07:46:12;;;;;;;35.15;9.68;;;;;;;-142.57;100.00;56343.59;5056553;28;20048;-81
2024/01/20 07:48:37;;;;;;;42.67;11.50;;;;;;;-142.57;100.00;56485.06;5056562;28;20021;-84
2024/01/20 07:51:03;;;;;;;1743.90;187.48;;;;;;;-142.57;100.00;56452.75;5055093;28;20508;-81
2024/01/20 07:53:30;;;;;;;123.65;22.92;;;;;;;-142.57;100.00;56533.56;5055247;28;20044;-81
2024/01/20 07:55:55;;;;;;;43.05;13.55;;;;;;;-142.57;97.58;56499.22;5055640;28;20032;-85
2024/01/20 07:58:21;;;;;;;23.35;8.90;;;;;;;-142.57;92.85;56440.59;5037789;28;20035;-86
2024/01/20 08:00:46;;;;;;;74.95;19.17;;;;;;;-142.57;91.12;56574.00;5055489;28;20075;-85
2024/01/20 08:03:12;;;;;;;30.58;11.82;;;;;;;-142.57;79.31;56458.81;5055580;28;20033;-82
2024/01/20 08:05:37;;;;;;;19.05;9.77;;;;;;;-142.57;84.61;56339.56;5054154;28;20475;-82
2024/01/20 08:08:03;;;;;;;17.65;9.32;;;;;;;-142.57;80.93;56311.28;5060305;28;20043;-80
2024/01/20 08:10:28;;;;;;;37.15;10.18;;;;;;;-142.57;79.66;56509.31;5063716;28;20025;-80
2024/01/20 08:12:55;;;;;;;34.13;9.77;;;;;;;-142.57;82.39;56287.03;5073964;28;20029;-80
2024/01/20 08:15:21;;;;;;;19.25;8.05;;;;;;;-142.57;88.20;56121.31;5077337;28;20045;-84
2024/01/20 08:17:46;;;;;;;26.73;8.75;;;;;;;-142.57;87.34;56022.31;5060566;28;20029;-82
2024/01/20 08:20:12;;;;;;;14.20;8.02;;;;;;;-142.57;95.27;55874.78;5054970;28;20029;-80
2024/01/20 08:22:37;;;;;;;524.17;54.47;;;;;;;-142.57;97.63;55868.72;5056805;28;20033;-83
2024/01/20 08:25:04;;;;;;;658.90;60.95;;;;;;;-142.57;100.00;55818.22;5054926;28;20033;-80
2024/01/20 08:27:31;;;;;;;1908.40;191.98;;;;;;;-142.57;100.00;55785.91;5055682;28;20062;-82
2024/01/20 08:29:57;;;;;;;38.47;10.00;;;;;;;-142.57;100.00;55745.47;5056443;28;20124;-84
2024/01/20 08:32:23;;;;;;;50.67;12.25;;;;;;;-142.57;100.00;55690.94;5055824;28;20060;-83
2024/01/20 08:34:58;;;;;;;105.22;15.27;;;;;;;-142.57;100.00;55733.34;5055983;28;20120;-79
2024/01/20 08:37:24;;;;;;;75.85;15.68;;;;;;;-142.57;100.00;55733.34;5056497;28;20108;-81
2024/01/20 08:39:50;;;;;;;155.85;18.48;;;;;;;-142.57;100.00;55668.69;5055414;28;20060;-85
2024/01/20 08:42:17;;;;;;;49.50;11.07;;;;;;;-142.57;100.00;55692.94;5041304;28;20033;-83
2024/01/20 08:44:43;;;;;;;20.13;9.60;;;;;;;-142.57;100.00;55680.81;5037453;28;20052;-85
2024/01/20 08:47:10;;;;;;;24.75;9.60;;;;;;;-142.57;100.00;55642.44;5036860;28;20132;-87
2024/01/20 08:49:36;;;;;;;26.88;8.95;;;;;;;-142.57;100.00;55747.50;5038571;28;20281;-84
2024/01/20 08:52:01;;;;;;;230.48;23.00;;;;;;;-142.57;100.00;55749.53;5020703;28;20379;-84
2024/01/20 08:54:27;;;;;;;29.77;9.65;;;;;;;-142.57;100.00;55796.00;5038736;28;20037;-83
2024/01/20 08:56:52;;;;;;;80.35;14.10;;;;;;;-142.57;100.00;55789.94;5030174;28;20120;-82
2024/01/20 08:59:21;;;;;;;17.55;8.20;;;;;;;-142.57;100.00;55779.84;5018395;28;20116;-83
2024/01/20 09:01:50;;;;;;;29.20;9.60;;;;;;;-142.57;100.00;55777.81;5019958;28;20104;-81
2024/01/20 09:04:16;;;;;;;16.58;8.55;;;;;;;-142.57;100.00;55757.59;5025404;28;20041;-83
2024/01/20 09:06:44;;;;;;;100.38;14.18;;;;;;;-142.57;100.00;55785.91;5023567;28;20491;-82
2024/01/20 09:09:10;;;;;;;106.38;15.45;;;;;;;-142.57;100.00;55830.34;5021025;28;20144;-84
2024/01/20 09:11:36;;;;;;;203.55;22.02;;;;;;;-142.57;100.00;55838.44;5017849;28;20054;-85
2024/01/20 09:14:02;;;;;;;50.60;10.40;;;;;;;-142.57;100.00;55919.25;5041124;28;20029;-84
2024/01/20 09:16:28;;;;;;;17.42;8.10;;;;;;;-142.57;100.00;55868.72;5028241;28;20038;-85
2024/01/20 09:18:53;;;;;;;31.90;8.32;;;;;;;-142.57;100.00;55882.88;5024586;28;20403;-81
2024/01/20 09:21:19;;;;;;;36.75;8.25;;;;;;;-142.57;100.00;55868.72;5037212;28;20113;-84
2024/01/20 09:23:47;;;;;;;11.93;7.20;;;;;;;-142.57;100.00;55846.50;5024663;28;20042;-80
2024/01/20 09:26:13;;;;;;;14.10;6.85;;;;;;;-142.57;100.00;55753.56;5043454;28;20072;-83
2024/01/20 09:28:44;;;;;;;13.25;6.70;;;;;;;-142.57;100.00;55838.44;5035761;28;20474;-89
2024/01/20 09:31:10;;;;;;;12.18;7.32;;;;;;;-142.57;100.00;55812.16;5024407;28;20438;-91
2024/01/20 09:33:42;;;;;;;16.13;6.97;;;;;;;-142.57;100.00;55836.41;5038859;28;20103;-85
2024/01/20 09:36:07;;;;;;;14.75;7.20;;;;;;;-142.57;100.00;55769.72;5034981;28;20044;-80
2024/01/20 09:38:33;;;;;;;33.47;8.50;;;;;;;-142.57;100.00;55806.09;5039452;28;20073;-83
2024/01/20 09:40:59;;;;;;;18.95;7.80;;;;;;;-142.57;100.00;55818.22;5033503;28;20033;-85
2024/01/20 09:43:28;;;;;;;19.13;6.70;;;;;;;-142.57;100.00;55814.19;5031283;28;20030;-77
2024/01/20 09:45:57;;;;;;;13.77;6.28;;;;;;;-142.57;100.00;55834.38;5027723;28;20037;-84
2024/01/20 09:48:24;;;;;;;41.05;7.07;;;;;;;-142.57;100.00;55812.16;5021003;28;20042;-85
2024/01/20 09:50:52;;;;;;;152.35;15.60;;;;;;;-142.57;100.00;55783.88;5024952;28;20033;-83
2024/01/20 09:53:18;;;;;;;18.25;5.40;;;;;;;-142.57;95.77;55830.34;5021138;28;20042;-81
2024/01/20 09:55:45;;;;;;;97.50;9.45;;;;;;;-142.57;93.91;55866.72;5019941;28;20030;-83
2024/01/20 09:58:12;;;;;;;12.52;4.63;;;;;;;-142.57;85.75;55878.84;5027489;28;20417;-84
2024/01/20 10:00:40;;;;;;;7.63;4.40;;;;;;;-142.57;82.57;55882.88;5031555;28;20034;-85
2024/01/20 10:03:08;;;;;;;30.35;4.60;;;;;;;-142.57;75.28;55917.22;5038073;28;20063;-85
2024/01/20 10:05:37;;;;;;;20.70;4.70;;;;;;;-142.57;74.39;55903.09;5028560;28;20034;-83
2024/01/20 10:08:04;;;;;;;20.15;4.65;;;;;;;-142.57;71.54;55892.97;5027392;28;20457;-88
2024/01/20 10:10:31;;;;;;;32.08;5.80;;;;;;;-142.57;72.11;55872.78;5026096;28;20122;-84
2024/01/20 10:12:57;;;;;;;25.27;4.93;;;;;;;-142.57;71.44;55862.69;5022435;28;20025;-84
2024/01/20 10:15:28;;;;;;;5.97;3.50;;;;;;;-142.57;71.25;55822.25;5031823;28;20021;-85
2024/01/20 10:17:57;;;;;;;19.90;4.60;;;;;;;-142.57;73.51;55844.50;5043077;28;20041;-87
2024/01/20 10:20:24;;;;;;;9.93;4.28;;;;;;;-142.57;73.41;55822.25;5039120;28;20033;-82
2024/01/20 10:22:51;;;;;;;69.63;7.72;;;;;;;-142.57;73.29;55884.91;5040912;28;20053;-84
2024/01/20 10:25:21;;;;;;;12.75;5.60;;;;;;;-142.57;78.53;55903.09;5042908;28;20037;-83
2024/01/20 10:27:48;;;;;;;21.50;6.20;;;;;;;-142.57;85.26;55923.28;5034589;28;20133;-87
2024/01/20 10:30:18;;;;;;;39.70;7.50;;;;;;;-142.57;97.77;55903.09;5022239;28;20034;-87
2024/01/20 10:32:46;;;;;;;56.75;8.63;;;;;;;-142.57;100.00;55886.91;5022731;28;20042;-88
2024/01/20 10:35:17;;;;;;;14.68;7.38;;;;;;;-142.57;100.00;55866.72;5039868;28;20053;-82
2024/01/20 10:37:50;;;;;;;14.35;7.13;;;;;;;-142.57;100.00;55858.63;5042470;28;20124;-83
2024/01/20 10:40:19;;;;;;;49.10;8.95;;;;;;;-142.57;99.90;55866.72;5053248;28;20064;-82
2024/01/20 10:42:47;;;;;;;16.50;6.88;;;;;;;-142.57;99.62;55899.03;5046044;28;20042;-82
2024/01/20 10:45:19;;;;;;;34.67;7.75;;;;;;;-142.57;96.69;55927.34;5026395;28;20037;-82
2024/01/20 10:47:59;;;;;;;12.95;5.50;;;;;;;-142.57;90.49;55909.16;5028123;28;20037;-78
2024/01/20 10:50:26;;;;;;;12.90;4.13;;;;;;;-142.57;83.06;55923.28;5029459;28;20037;-78
2024/01/20 10:52:52;;;;;;;10.45;5.00;;;;;;;-142.57;83.01;55907.13;5028089;28;20034;-77
2024/01/20 10:55:19;;;;;;;14.02;5.18;;;;;;;-142.57;83.62;55925.31;5026864;28;20034;-83
2024/01/20 10:57:51;;;;;;;24.27;5.93;;;;;;;-142.57;84.23;55874.78;5048742;28;20042;-85
2024/01/20 11:00:19;;;;;;;28.73;6.72;;;;;;;-142.57;78.39;55901.06;5033994;28;20034;-85